Time;durP1;ratioP1;P1;durP2;ratioP2;P2;SDS_P1;SDS_P2;PMS_P1;PMS_P2;Temp;Humidity;BMP_temperature;BMP_pressure;BME280_temperature;BME280_humidity;BME280_pressure;Samples;Min_cycle;Max_cycle;Signal;HPM_P1;HPM_P2
2022/01/20 00:01:54;;;;;;;8.60;6.90;;;3.60;99.90;;;;;;4955505;28;20516;-73
2022/01/20 00:04:27;;;;;;;7.63;6.60;;;3.60;99.90;;;;;;4954311;28;21075;-73
2022/01/20 00:20:41;;;;;;;8.67;7.20;;;3.60;99.90;;;;;;4954444;28;20455;-73
2022/01/20 00:25:51;;;;;;;9.67;7.13;;;3.60;99.90;;;;;;4954437;28;20499;-73
2022/01/20 00:26:42;;;;;;;10.33;7.10;;;3.60;99.90;;;;;;4953876;29;20471;-74
2022/01/20 00:29:15;;;;;;;11.30;7.80;;;3.60;99.90;;;;;;4952201;28;20508;-73
2022/01/20 00:31:48;;;;;;;11.37;8.10;;;3.60;99.90;;;;;;4954529;28;20472;-73
2022/01/20 00:34:19;;;;;;;10.63;7.93;;;3.60;99.90;;;;;;4953273;28;20516;-73
2022/01/20 00:39:31;;;;;;;9.77;7.23;;;3.70;99.90;;;;;;4954598;29;20436;-73
2022/01/20 00:41:59;;;;;;;11.27;6.83;;;3.70;99.90;;;;;;4954438;28;20480;-73
2022/01/20 00:44:26;;;;;;;10.20;7.20;;;3.70;99.90;;;;;;4953329;28;20477;-73
2022/01/20 00:46:53;;;;;;;13.83;7.47;;;3.70;99.90;;;;;;4953449;28;20516;-72
2022/01/20 00:49:20;;;;;;;8.63;6.50;;;3.70;99.90;;;;;;4954147;28;20892;-73
2022/01/20 00:51:47;;;;;;;16.60;6.53;;;3.70;99.90;;;;;;4954559;28;20453;-73
2022/01/20 00:54:14;;;;;;;9.30;6.13;;;3.70;99.90;;;;;;4953835;28;20485;-73
2022/01/20 00:56:41;;;;;;;10.00;6.20;;;3.80;99.90;;;;;;4953222;28;20519;-73
2022/01/20 00:59:09;;;;;;;12.80;6.00;;;3.70;99.90;;;;;;4953252;28;20484;-72
2022/01/20 01:01:35;;;;;;;11.00;5.83;;;3.70;99.90;;;;;;4954344;28;20525;-73
2022/01/20 01:04:02;;;;;;;17.80;5.87;;;3.70;99.90;;;;;;4947048;28;20470;-73
2022/01/20 01:06:42;;;;;;;16.93;5.60;;;3.70;99.90;;;;;;4947705;29;20463;-73
2022/01/20 01:09:08;;;;;;;14.43;5.93;;;3.60;99.90;;;;;;4952828;28;20457;-73
2022/01/20 01:11:36;;;;;;;24.70;5.60;;;3.60;99.90;;;;;;4951827;28;21518;-72
2022/01/20 01:14:04;;;;;;;14.07;5.17;;;3.60;99.90;;;;;;4947299;28;20500;-73
2022/01/20 01:19:59;;;;;;;17.27;5.53;;;3.60;99.90;;;;;;4946769;28;21011;-72
2022/01/20 01:22:21;;;;;;;9.63;4.53;;;3.60;99.90;;;;;;4935777;28;20440;-72
2022/01/20 01:24:51;;;;;;;20.13;5.07;;;3.60;99.90;;;;;;4945657;28;20968;-73
2022/01/20 01:27:19;;;;;;;16.20;5.43;;;3.60;99.90;;;;;;4944745;29;20464;-72
2022/01/20 01:30:02;;;;;;;13.00;5.67;;;3.60;99.90;;;;;;4952640;28;20879;-72
2022/01/20 01:32:39;;;;;;;18.17;5.47;;;3.60;99.90;;;;;;4954174;28;20500;-72
2022/01/20 01:35:08;;;;;;;20.40;5.63;;;3.70;99.90;;;;;;4952632;28;20564;-73
2022/01/20 01:38:24;;;;;;;14.47;5.03;;;3.70;99.90;;;;;;4953578;28;20456;-72
2022/01/20 01:40:25;;;;;;;15.30;4.13;;;3.70;99.90;;;;;;4952030;28;20453;-72
2022/01/20 01:42:53;;;;;;;16.50;4.00;;;3.70;99.90;;;;;;4953037;28;20488;-72
2022/01/20 01:45:25;;;;;;;20.40;5.90;;;3.70;99.90;;;;;;4976174;23;20520;-70
2022/01/20 01:47:53;;;;;;;8.13;4.83;;;3.70;99.90;;;;;;4988353;28;20459;-70
2022/01/20 01:50:20;;;;;;;9.80;4.73;;;3.70;99.90;;;;;;4991208;28;20459;-70
2022/01/20 01:52:47;;;;;;;15.73;4.70;;;3.70;99.90;;;;;;4991523;28;20545;-70
2022/01/20 01:55:15;;;;;;;18.00;6.33;;;3.60;99.90;;;;;;4988556;28;21006;-70
2022/01/20 01:57:42;;;;;;;26.37;5.90;;;3.60;99.90;;;;;;4971408;28;20460;-70
2022/01/20 02:00:11;;;;;;;24.27;6.17;;;3.50;99.90;;;;;;4971421;28;20543;-70
2022/01/20 02:02:39;;;;;;;20.90;6.10;;;3.50;99.90;;;;;;4972133;28;20459;-70
2022/01/20 02:05:10;;;;;;;15.90;5.83;;;3.50;99.90;;;;;;4971096;28;20503;-70
2022/01/20 02:18:43;;;;;;;18.60;6.10;;;3.30;99.90;;;;;;4971486;28;20452;-70
2022/01/20 02:21:11;;;;;;;20.33;6.50;;;3.30;99.90;;;;;;4972258;28;20834;-70
2022/01/20 02:23:38;;;;;;;21.93;7.60;;;3.30;99.90;;;;;;4971908;28;20460;-70
2022/01/20 02:26:05;;;;;;;30.03;6.80;;;3.30;99.90;;;;;;4971571;28;20803;-70
2022/01/20 02:28:32;;;;;;;25.43;7.17;;;3.30;99.90;;;;;;4971523;28;20502;-70
2022/01/20 02:30:59;;;;;;;27.47;7.10;;;3.20;99.90;;;;;;4972062;28;20798;-70
2022/01/20 02:33:27;;;;;;;14.33;5.90;;;3.20;99.90;;;;;;4970822;28;20483;-70
2022/01/20 02:35:58;;;;;;;13.20;6.00;;;3.20;99.90;;;;;;4971102;28;20535;-70
2022/01/20 02:38:32;;;;;;;24.30;6.27;;;3.20;99.90;;;;;;4957616;28;20452;-70
2022/01/20 02:46:29;;;;;;;10.63;5.47;;;3.00;99.90;;;;;;4971683;28;20610;-70
2022/01/20 02:48:55;;;;;;;10.73;4.80;;;3.00;99.90;;;;;;4971936;28;20464;-70
2022/01/20 02:51:22;;;;;;;16.17;5.90;;;3.00;99.90;;;;;;4971700;28;20865;-70
2022/01/20 02:53:50;;;;;;;24.53;5.90;;;3.00;99.90;;;;;;4971913;28;20483;-70
2022/01/20 02:56:17;;;;;;;13.83;5.23;;;3.00;99.90;;;;;;4971266;28;20472;-70
2022/01/20 02:58:43;;;;;;;12.87;5.20;;;3.00;99.90;;;;;;4971891;28;20460;-70
2022/01/20 03:01:10;;;;;;;17.20;4.97;;;3.00;99.90;;;;;;4971111;28;20452;-70
2022/01/20 03:03:37;;;;;;;16.60;5.53;;;3.00;99.90;;;;;;4971254;28;20952;-70
2022/01/20 03:06:04;;;;;;;18.80;5.43;;;3.00;99.90;;;;;;4971697;28;20480;-70
2022/01/20 03:08:31;;;;;;;20.43;5.63;;;2.90;99.90;;;;;;4971461;28;20452;-70
2022/01/20 03:10:59;;;;;;;12.43;6.17;;;2.90;99.90;;;;;;4972045;28;20524;-70
2022/01/20 03:13:26;;;;;;;30.43;6.80;;;2.80;99.90;;;;;;4971439;28;20530;-70
2022/01/20 03:15:52;;;;;;;16.63;7.10;;;2.80;99.90;;;;;;4971595;28;20530;-70
2022/01/20 03:18:19;;;;;;;27.90;6.20;;;2.70;99.90;;;;;;4970501;28;20455;-70
2022/01/20 03:20:46;;;;;;;27.40;6.83;;;2.70;99.90;;;;;;4971831;28;20456;-70
2022/01/20 03:23:13;;;;;;;21.27;7.60;;;2.70;99.90;;;;;;4971858;28;20460;-70
2022/01/20 03:25:39;;;;;;;24.10;6.83;;;2.70;99.90;;;;;;4971798;28;20558;-70
2022/01/20 03:28:07;;;;;;;25.57;7.30;;;2.70;99.90;;;;;;4970928;28;20460;-70
2022/01/20 03:30:35;;;;;;;34.03;8.50;;;2.70;99.90;;;;;;4970781;28;20511;-70
2022/01/20 03:33:01;;;;;;;24.17;7.33;;;2.70;99.90;;;;;;4971515;28;20452;-70
2022/01/20 03:35:28;;;;;;;26.23;7.17;;;2.70;99.90;;;;;;4971725;28;20491;-70
2022/01/20 03:37:55;;;;;;;21.03;7.70;;;2.60;99.90;;;;;;4971277;28;20456;-70
2022/01/20 03:40:23;;;;;;;26.60;7.07;;;2.70;99.90;;;;;;4971343;28;21015;-70
2022/01/20 03:42:50;;;;;;;36.50;8.40;;;2.70;99.90;;;;;;4971414;28;20483;-70
2022/01/20 03:45:18;;;;;;;24.07;7.77;;;2.80;99.90;;;;;;4971101;28;20506;-70
2022/01/20 03:47:45;;;;;;;21.77;7.53;;;2.80;99.90;;;;;;4974771;28;20456;-70
2022/01/20 03:50:59;;;;;;;42.47;9.10;;;2.80;99.90;;;;;;4974703;28;21105;-70
2022/01/20 03:52:58;;;;;;;30.40;7.70;;;2.80;99.90;;;;;;4974948;28;20452;-70
2022/01/20 03:55:25;;;;;;;17.37;8.03;;;2.80;99.90;;;;;;4973980;28;20626;-70
2022/01/20 03:57:51;;;;;;;26.37;8.13;;;2.80;99.90;;;;;;4974461;28;20514;-70
2022/01/20 04:00:20;;;;;;;31.47;9.10;;;2.80;99.90;;;;;;4974072;28;21047;-70
2022/01/20 04:02:46;;;;;;;27.63;9.47;;;2.80;99.90;;;;;;4975170;28;20452;-69
2022/01/20 04:05:13;;;;;;;24.43;8.70;;;2.80;99.90;;;;;;4974580;28;20502;-70
2022/01/20 04:07:39;;;;;;;23.53;8.10;;;2.80;99.90;;;;;;4974261;28;20456;-70
2022/01/20 04:10:07;;;;;;;35.73;10.83;;;2.80;99.90;;;;;;4974768;28;20485;-70
2022/01/20 04:12:34;;;;;;;24.20;8.50;;;2.70;99.90;;;;;;4974183;28;20515;-70
2022/01/20 04:15:07;;;;;;;34.83;9.00;;;2.70;99.90;;;;;;4973709;28;20905;-70
2022/01/20 04:17:39;;;;;;;31.50;9.13;;;2.70;99.90;;;;;;4974133;28;20464;-70
2022/01/20 04:20:07;;;;;;;29.07;8.53;;;2.70;99.90;;;;;;4974293;28;20518;-70
2022/01/20 04:22:34;;;;;;;30.93;9.17;;;2.70;99.90;;;;;;4962921;28;20456;-70
2022/01/20 04:25:01;;;;;;;28.17;7.63;;;2.70;99.90;;;;;;4974369;28;20456;-70
2022/01/20 04:27:28;;;;;;;42.60;8.77;;;2.70;99.90;;;;;;4974207;28;20620;-70
2022/01/20 04:29:54;;;;;;;46.57;9.03;;;2.70;99.90;;;;;;4973755;28;20503;-70
2022/01/20 04:32:21;;;;;;;30.20;8.53;;;2.70;99.90;;;;;;4973647;28;20502;-70
2022/01/20 04:34:49;;;;;;;24.33;7.50;;;2.70;99.90;;;;;;4973626;28;20484;-70
2022/01/20 04:37:16;;;;;;;25.30;6.63;;;2.70;99.90;;;;;;4974013;28;20476;-70
2022/01/20 04:39:47;;;;;;;27.83;8.53;;;2.80;99.90;;;;;;4973925;28;20487;-70
2022/01/20 04:42:14;;;;;;;51.17;8.97;;;2.90;99.90;;;;;;4974072;28;20456;-70
2022/01/20 04:44:46;;;;;;;26.87;8.40;;;2.90;99.90;;;;;;4973989;28;20832;-70
2022/01/20 04:47:23;;;;;;;26.47;8.60;;;3.00;99.90;;;;;;4973553;28;20491;-70
2022/01/20 04:58:03;;;;;;;32.97;7.97;;;3.00;99.90;;;;;;4972652;28;20499;-69
2022/01/20 05:00:30;;;;;;;30.00;8.90;;;3.00;99.90;;;;;;4973327;28;20511;-70
2022/01/20 05:02:57;;;;;;;28.83;8.60;;;3.00;99.90;;;;;;4973742;28;21031;-70
2022/01/20 05:05:26;;;;;;;30.07;9.07;;;3.00;99.90;;;;;;4973457;28;20476;-70
2022/01/20 05:07:53;;;;;;;35.37;9.90;;;2.90;99.90;;;;;;4973953;28;20550;-70
2022/01/20 05:10:19;;;;;;;28.80;8.50;;;2.90;99.90;;;;;;4972762;28;20963;-70
2022/01/20 05:15:32;;;;;;;35.03;9.50;;;2.90;99.90;;;;;;4972936;28;20566;-70
2022/01/20 05:17:59;;;;;;;28.77;8.00;;;2.90;99.90;;;;;;4970801;28;20523;-70
2022/01/20 05:20:27;;;;;;;20.97;7.80;;;2.90;99.90;;;;;;4971351;28;20452;-70
2022/01/20 05:22:53;;;;;;;27.57;7.60;;;2.90;99.90;;;;;;4973089;28;20491;-70
2022/01/20 05:25:20;;;;;;;39.03;9.33;;;2.90;99.90;;;;;;4971570;28;20870;-71
2022/01/20 05:27:47;;;;;;;29.10;7.30;;;2.90;99.90;;;;;;4971724;28;20881;-71
2022/01/20 05:30:13;;;;;;;42.20;8.50;;;2.90;99.90;;;;;;4972297;28;20452;-71
2022/01/20 05:32:40;;;;;;;21.90;7.10;;;3.00;99.90;;;;;;4973401;28;20960;-71
2022/01/20 05:35:08;;;;;;;29.27;7.20;;;2.90;99.90;;;;;;4972681;28;20517;-70
2022/01/20 05:37:36;;;;;;;27.87;8.70;;;3.00;99.90;;;;;;4973260;28;20547;-70
2022/01/20 05:40:04;;;;;;;30.93;8.20;;;3.10;99.90;;;;;;4972699;28;20486;-71
2022/01/20 05:42:31;;;;;;;29.37;7.10;;;3.10;99.90;;;;;;4973026;28;20452;-70
2022/01/20 05:44:57;;;;;;;17.77;6.70;;;3.10;99.90;;;;;;4973030;28;20456;-71
2022/01/20 05:47:28;;;;;;;32.77;7.03;;;3.10;99.90;;;;;;4972981;28;20487;-70
2022/01/20 05:49:55;;;;;;;30.23;8.00;;;3.20;99.90;;;;;;4972289;28;20550;-71
2022/01/20 05:52:22;;;;;;;26.90;6.57;;;3.20;99.90;;;;;;4972898;28;20444;-70
2022/01/20 05:54:50;;;;;;;33.80;6.97;;;3.20;99.90;;;;;;4972712;28;20487;-70
2022/01/20 05:57:17;;;;;;;15.33;7.30;;;3.20;99.90;;;;;;4972648;28;20534;-71
2022/01/20 05:59:44;;;;;;;14.53;6.77;;;3.20;99.90;;;;;;4971324;28;20506;-71
2022/01/20 06:02:24;;;;;;;14.00;6.47;;;3.30;99.90;;;;;;4972697;28;20550;-71
2022/01/20 06:04:51;;;;;;;28.70;7.00;;;3.30;99.90;;;;;;4970166;28;20535;-70
2022/01/20 06:07:19;;;;;;;26.17;7.57;;;3.30;99.90;;;;;;4972409;28;20480;-69
2022/01/20 06:09:46;;;;;;;16.87;6.63;;;3.30;99.90;;;;;;4971965;28;20870;-70
2022/01/20 06:12:14;;;;;;;23.83;6.80;;;3.30;99.90;;;;;;4972257;28;20452;-70
2022/01/20 06:14:41;;;;;;;15.57;7.17;;;3.30;99.90;;;;;;4972226;28;20484;-70
2022/01/20 06:17:07;;;;;;;26.97;8.33;;;3.30;99.90;;;;;;4971941;28;20534;-70
2022/01/20 06:19:34;;;;;;;18.03;7.30;;;3.30;99.90;;;;;;4971758;28;20510;-70
2022/01/20 06:22:01;;;;;;;18.33;6.73;;;3.30;99.90;;;;;;4970907;28;20448;-70
2022/01/20 06:24:27;;;;;;;28.00;8.40;;;3.30;99.90;;;;;;4972032;28;20952;-70
2022/01/20 06:26:54;;;;;;;24.00;7.30;;;3.30;99.90;;;;;;4972099;28;20507;-70
2022/01/20 06:29:22;;;;;;;23.30;7.23;;;3.30;99.90;;;;;;4971197;28;21461;-70
2022/01/20 06:31:49;;;;;;;21.53;7.53;;;3.30;99.90;;;;;;4971890;28;20452;-70
2022/01/20 06:34:15;;;;;;;24.17;7.23;;;3.30;99.90;;;;;;4969827;28;20499;-70
2022/01/20 06:36:42;;;;;;;22.67;7.47;;;3.30;99.90;;;;;;4970010;28;20530;-70
2022/01/20 06:39:09;;;;;;;24.03;8.00;;;3.30;99.90;;;;;;4970504;28;20464;-70
2022/01/20 06:41:38;;;;;;;24.07;8.30;;;3.30;99.90;;;;;;4970550;28;20456;-70
2022/01/20 06:44:05;;;;;;;31.43;9.97;;;3.20;99.90;;;;;;4970787;28;20463;-70
2022/01/20 06:46:33;;;;;;;30.77;7.40;;;3.20;99.90;;;;;;4970913;28;20538;-70
2022/01/20 06:48:59;;;;;;;16.97;6.07;;;3.10;99.90;;;;;;4971431;28;20515;-70
2022/01/20 06:51:26;;;;;;;25.83;7.33;;;3.10;99.90;;;;;;4971102;28;20959;-70
2022/01/20 06:53:53;;;;;;;23.83;8.30;;;3.10;99.90;;;;;;4971189;28;20507;-70
2022/01/20 06:56:19;;;;;;;19.43;6.73;;;3.10;99.90;;;;;;4971810;28;21096;-70
2022/01/20 06:58:46;;;;;;;29.33;5.80;;;3.10;99.90;;;;;;4971901;28;20456;-70
2022/01/20 07:01:13;;;;;;;13.50;6.37;;;3.00;99.90;;;;;;4972106;28;20518;-68
2022/01/20 07:03:41;;;;;;;15.70;5.90;;;3.00;99.90;;;;;;4972073;28;20448;-67
2022/01/20 07:06:07;;;;;;;14.70;5.90;;;3.00;99.90;;;;;;4971839;28;20483;-68
2022/01/20 07:08:34;;;;;;;20.50;6.90;;;2.90;99.90;;;;;;4971525;28;20510;-67
2022/01/20 07:11:00;;;;;;;21.63;6.40;;;3.00;99.90;;;;;;4971978;28;20795;-68
2022/01/20 07:13:27;;;;;;;24.37;7.07;;;3.00;99.90;;;;;;4971397;28;20452;-68
2022/01/20 07:15:54;;;;;;;30.07;6.93;;;3.00;99.90;;;;;;4971872;28;20551;-67
2022/01/20 07:18:21;;;;;;;13.70;5.73;;;3.00;99.90;;;;;;4971632;28;20817;-66
2022/01/20 07:20:49;;;;;;;27.00;6.00;;;3.10;99.90;;;;;;4973038;28;20507;-67
2022/01/20 07:23:16;;;;;;;26.83;5.20;;;3.20;99.90;;;;;;4975625;28;20502;-67
2022/01/20 07:25:42;;;;;;;18.47;6.10;;;3.20;99.90;;;;;;4975713;28;20546;-67
2022/01/20 07:28:18;;;;;;;18.17;6.00;;;3.20;99.90;;;;;;4975218;28;20567;-67
2022/01/20 07:30:45;;;;;;;13.37;5.50;;;3.20;99.90;;;;;;4975445;28;20506;-67
2022/01/20 07:33:11;;;;;;;13.80;5.80;;;3.30;99.90;;;;;;4975541;28;20487;-67
2022/01/20 07:35:38;;;;;;;16.63;5.97;;;3.30;99.90;;;;;;4975116;28;20776;-67
2022/01/20 07:38:07;;;;;;;28.07;6.63;;;3.30;99.90;;;;;;4975314;28;20456;-67
2022/01/20 07:40:35;;;;;;;14.87;5.53;;;3.30;99.90;;;;;;4975054;28;20816;-67
2022/01/20 07:43:02;;;;;;;16.40;6.93;;;3.30;99.90;;;;;;4975177;28;20459;-67
2022/01/20 07:47:56;;;;;;;16.73;5.60;;;3.30;99.90;;;;;;4993079;28;20462;-70
2022/01/20 07:50:23;;;;;;;18.10;5.60;;;3.30;99.90;;;;;;4993694;28;20443;-69
2022/01/20 07:52:50;;;;;;;15.73;4.77;;;3.30;99.90;;;;;;4994860;28;20443;-70
2022/01/20 07:55:18;;;;;;;13.00;5.83;;;3.20;99.90;;;;;;4995101;28;20491;-70
2022/01/20 07:57:44;;;;;;;14.67;4.83;;;3.30;99.90;;;;;;4994910;28;20475;-71
2022/01/20 08:00:12;;;;;;;7.00;3.73;;;3.30;99.90;;;;;;4994617;28;20455;-70
2022/01/20 08:02:39;;;;;;;6.10;3.03;;;3.20;99.90;;;;;;4994579;28;20955;-70
2022/01/20 08:05:06;;;;;;;8.30;3.87;;;3.20;99.90;;;;;;4994504;28;20936;-70
2022/01/20 08:07:33;;;;;;;6.30;3.63;;;3.20;99.90;;;;;;4994838;28;20537;-70
2022/01/20 08:10:00;;;;;;;5.73;3.20;;;3.20;99.90;;;;;;4994444;28;21024;-70
2022/01/20 08:12:29;;;;;;;5.83;3.30;;;3.30;99.90;;;;;;4994555;28;20849;-70
2022/01/20 08:14:58;;;;;;;5.30;3.30;;;3.30;99.90;;;;;;4994755;28;20486;-71
2022/01/20 08:17:25;;;;;;;8.87;3.97;;;3.30;99.90;;;;;;4994838;28;20931;-69
2022/01/20 08:19:52;;;;;;;6.83;3.30;;;3.30;99.90;;;;;;4994069;28;20459;-70
2022/01/20 08:22:19;;;;;;;8.53;3.60;;;3.20;99.90;;;;;;4994841;28;20882;-70
2022/01/20 08:24:51;;;;;;;4.10;3.17;;;3.20;99.90;;;;;;4994423;28;21006;-70
2022/01/20 08:27:18;;;;;;;3.57;2.73;;;3.10;99.90;;;;;;4994213;28;20506;-70
2022/01/20 08:29:47;;;;;;;3.90;2.87;;;3.00;99.90;;;;;;4993882;28;20951;-70
2022/01/20 08:32:13;;;;;;;4.53;2.50;;;3.00;99.90;;;;;;4994776;28;20489;-71
2022/01/20 08:34:40;;;;;;;5.70;2.67;;;3.00;99.90;;;;;;4994210;28;20455;-69
2022/01/20 08:37:07;;;;;;;8.17;2.60;;;2.90;99.90;;;;;;4994331;28;20466;-69
2022/01/20 08:39:41;;;;;;;3.03;2.20;;;2.90;99.90;;;;;;4993546;28;20455;-69
2022/01/20 08:42:08;;;;;;;2.60;2.10;;;2.80;99.90;;;;;;4994356;28;20565;-69
2022/01/20 08:44:36;;;;;;;2.93;2.73;;;2.90;99.90;;;;;;4994101;28;20459;-68
2022/01/20 08:47:09;;;;;;;5.43;2.23;;;2.90;99.90;;;;;;4993860;28;20476;-69
2022/01/20 08:49:36;;;;;;;4.83;2.40;;;2.90;99.90;;;;;;4993717;28;20460;-69
2022/01/20 08:52:04;;;;;;;2.90;2.33;;;2.90;99.90;;;;;;4993231;28;20451;-70
2022/01/20 08:54:30;;;;;;;6.70;2.10;;;3.00;99.90;;;;;;4993707;28;20489;-69
2022/01/20 08:56:57;;;;;;;8.70;2.20;;;3.00;99.90;;;;;;4993565;28;21074;-70
2022/01/20 08:59:26;;;;;;;3.97;2.80;;;3.00;99.90;;;;;;4993506;28;21018;-69
2022/01/20 09:01:53;;;;;;;5.73;2.67;;;3.00;99.90;;;;;;4994082;28;20538;-69
2022/01/20 09:04:21;;;;;;;5.60;2.10;;;3.10;99.90;;;;;;4994043;28;20983;-69
2022/01/20 09:06:49;;;;;;;4.97;2.30;;;3.20;99.90;;;;;;4993550;28;20479;-69
2022/01/20 09:09:17;;;;;;;3.70;2.40;;;3.30;99.90;;;;;;4992955;28;20502;-70
2022/01/20 09:11:52;;;;;;;3.90;2.53;;;3.50;99.90;;;;;;4993680;28;20455;-68
2022/01/20 09:17:04;;;;;;;4.77;2.47;;;3.70;99.90;;;;;;4993241;28;21057;-68
2022/01/20 09:19:32;;;;;;;6.77;2.90;;;3.80;99.90;;;;;;4993039;28;20458;-69
2022/01/20 09:21:58;;;;;;;15.50;2.90;;;4.00;99.90;;;;;;4993168;28;20877;-69
2022/01/20 09:24:26;;;;;;;3.73;2.13;;;4.00;99.90;;;;;;4993316;28;20525;-69
2022/01/20 09:26:53;;;;;;;7.33;2.07;;;4.00;99.90;;;;;;4993362;28;20479;-69
2022/01/20 09:29:19;;;;;;;7.10;2.40;;;4.10;99.90;;;;;;4992918;28;20944;-69
2022/01/20 09:31:49;;;;;;;3.70;2.50;;;4.40;99.90;;;;;;4993126;28;20513;-69
2022/01/20 09:34:16;;;;;;;6.47;2.50;;;4.80;99.90;;;;;;4993125;28;20880;-69
2022/01/20 09:36:45;;;;;;;5.03;2.77;;;5.30;99.90;;;;;;4993142;28;20491;-68
2022/01/20 09:39:12;;;;;;;4.90;2.40;;;5.70;99.90;;;;;;4993258;28;20463;-70
2022/01/20 09:41:38;;;;;;;9.23;2.20;;;6.10;99.90;;;;;;4993291;28;20505;-68
2022/01/20 09:44:05;;;;;;;2.73;2.00;;;6.20;99.90;;;;;;4992668;28;20455;-68
2022/01/20 09:46:32;;;;;;;5.40;2.10;;;6.40;99.90;;;;;;4993099;28;20565;-69
2022/01/20 09:48:59;;;;;;;9.60;2.13;;;6.60;99.90;;;;;;4992892;28;20455;-69
2022/01/20 09:51:27;;;;;;;3.97;1.90;;;6.80;99.90;;;;;;4992344;28;20455;-68
2022/01/20 09:53:55;;;;;;;8.07;2.30;;;7.00;99.90;;;;;;4993173;28;20502;-69
2022/01/20 09:56:22;;;;;;;6.07;2.80;;;7.10;99.90;;;;;;4992438;28;20573;-69
2022/01/20 09:58:49;;;;;;;12.93;2.97;;;7.30;99.90;;;;;;4992203;28;20455;-69
2022/01/20 10:01:33;;;;;;;9.50;2.33;;;7.30;99.90;;;;;;4992569;28;20450;-69
2022/01/20 10:04:00;;;;;;;9.43;2.20;;;7.30;99.90;;;;;;4992720;28;20443;-71
2022/01/20 10:06:27;;;;;;;7.47;2.10;;;7.60;99.90;;;;;;4992496;28;20463;-70
2022/01/20 10:09:00;;;;;;;7.83;2.03;;;7.80;99.90;;;;;;4992293;28;20450;-69
2022/01/20 10:11:28;;;;;;;6.77;2.23;;;8.00;99.90;;;;;;4992081;28;20452;-69
2022/01/20 10:13:59;;;;;;;5.40;2.20;;;8.20;99.90;;;;;;4992605;28;20542;-69
2022/01/20 10:16:26;;;;;;;5.77;2.27;;;8.30;99.90;;;;;;4992300;28;20505;-69
2022/01/20 10:18:57;;;;;;;8.60;2.50;;;8.50;99.90;;;;;;4991924;28;20546;-69
2022/01/20 10:21:28;;;;;;;6.07;2.00;;;8.20;99.90;;;;;;4992144;28;20542;-69
2022/01/20 10:23:55;;;;;;;5.30;2.40;;;7.60;99.90;;;;;;4992188;28;20852;-69
2022/01/20 10:26:25;;;;;;;12.73;2.87;;;7.00;99.90;;;;;;4992326;28;20476;-69
2022/01/20 10:28:55;;;;;;;14.93;2.97;;;6.40;99.90;;;;;;4992113;28;20578;-69
2022/01/20 10:31:38;;;;;;;5.50;2.40;;;5.80;99.90;;;;;;4992092;28;20451;-69
2022/01/20 10:34:07;;;;;;;12.33;2.50;;;5.20;99.90;;;;;;4992173;28;20447;-68
2022/01/20 10:36:39;;;;;;;13.00;2.50;;;5.00;99.90;;;;;;4991699;28;20491;-69
2022/01/20 10:39:06;;;;;;;7.17;2.30;;;4.70;99.90;;;;;;4992137;28;20463;-69
2022/01/20 10:41:37;;;;;;;8.40;2.97;;;4.70;99.90;;;;;;4992060;28;20460;-69
2022/01/20 10:44:07;;;;;;;9.77;2.30;;;5.10;99.90;;;;;;4992277;28;20514;-67
2022/01/20 10:46:58;;;;;;;12.13;2.50;;;5.50;99.90;;;;;;4991709;28;20506;-69
2022/01/20 10:49:31;;;;;;;9.90;2.23;;;6.10;99.90;;;;;;4981890;28;20545;-69
2022/01/20 10:52:00;;;;;;;9.70;2.23;;;6.50;99.90;;;;;;4990782;28;20538;-69
2022/01/20 10:54:34;;;;;;;6.30;2.10;;;6.80;99.90;;;;;;4992145;28;20451;-69
2022/01/20 10:57:02;;;;;;;10.77;2.50;;;6.70;99.90;;;;;;4994810;28;20560;-70
2022/01/20 10:59:29;;;;;;;7.67;2.10;;;6.80;99.90;;;;;;4995966;28;20841;-69
2022/01/20 11:02:01;;;;;;;11.03;2.40;;;7.00;99.90;;;;;;4995909;28;21045;-70
2022/01/20 11:04:28;;;;;;;6.40;2.20;;;7.40;99.90;;;;;;4995962;28;20459;-70
2022/01/20 11:06:58;;;;;;;9.43;2.20;;;7.40;99.90;;;;;;4995586;28;20466;-69
2022/01/20 11:09:26;;;;;;;6.83;2.47;;;7.40;99.90;;;;;;4995431;28;20897;-69
2022/01/20 11:11:54;;;;;;;5.63;2.70;;;7.70;99.90;;;;;;4995739;28;20451;-69
2022/01/20 11:14:22;;;;;;;6.63;2.50;;;7.80;99.90;;;;;;4995864;28;20811;-69
2022/01/20 11:16:49;;;;;;;7.57;2.53;;;7.80;99.90;;;;;;4995446;28;20905;-69
2022/01/20 11:19:21;;;;;;;6.90;2.33;;;7.80;99.90;;;;;;4995518;28;20582;-69
2022/01/20 11:21:49;;;;;;;9.33;2.20;;;7.70;99.90;;;;;;4995372;28;20454;-69
2022/01/20 11:24:21;;;;;;;8.17;2.47;;;7.80;99.90;;;;;;4995727;28;20529;-68
2022/01/20 11:26:53;;;;;;;11.53;2.13;;;7.80;99.90;;;;;;4995449;28;20463;-69
2022/01/20 11:29:22;;;;;;;5.97;2.30;;;7.60;99.90;;;;;;4994810;28;20554;-71
2022/01/20 11:31:50;;;;;;;7.00;2.40;;;7.10;99.90;;;;;;4995428;28;20447;-69
2022/01/20 11:34:19;;;;;;;10.80;3.33;;;6.60;99.90;;;;;;4995381;28;20454;-69
2022/01/20 11:36:45;;;;;;;4.83;2.20;;;6.30;99.90;;;;;;4995333;28;21028;-68
2022/01/20 11:39:13;;;;;;;6.43;2.60;;;5.90;99.90;;;;;;4995230;28;20454;-68
2022/01/20 11:41:43;;;;;;;7.23;2.63;;;5.50;99.90;;;;;;4995327;28;20451;-68
2022/01/20 11:44:12;;;;;;;7.03;2.50;;;5.30;99.90;;;;;;4995414;28;20891;-69
2022/01/20 11:46:43;;;;;;;9.33;2.40;;;5.10;99.90;;;;;;4995238;28;20479;-69
2022/01/20 11:49:12;;;;;;;9.60;2.70;;;4.90;99.90;;;;;;4995032;28;20443;-68
2022/01/20 11:51:51;;;;;;;8.87;2.70;;;4.50;99.90;;;;;;4994497;28;20458;-68
2022/01/20 11:54:28;;;;;;;17.93;2.70;;;4.30;99.90;;;;;;4995155;28;20450;-69
2022/01/20 11:57:07;;;;;;;7.10;2.70;;;4.00;99.90;;;;;;4994746;28;20490;-69
2022/01/20 11:59:42;;;;;;;10.73;3.00;;;3.80;99.90;;;;;;4994581;28;20938;-69
2022/01/20 12:02:10;;;;;;;10.40;2.50;;;3.60;99.90;;;;;;4995010;28;20461;-69
2022/01/20 12:04:39;;;;;;;7.33;2.27;;;3.50;99.90;;;;;;4995006;28;20458;-73
2022/01/20 12:07:08;;;;;;;4.00;1.93;;;3.30;99.90;;;;;;4994556;28;20529;-70
2022/01/20 12:09:36;;;;;;;4.23;2.33;;;3.10;99.90;;;;;;4994804;28;20447;-70
2022/01/20 12:12:04;;;;;;;7.17;2.50;;;3.00;99.90;;;;;;4995306;28;20517;-70
2022/01/20 12:14:40;;;;;;;7.10;2.23;;;2.90;99.90;;;;;;4995315;28;20509;-69
2022/01/20 12:17:11;;;;;;;6.73;2.20;;;2.90;99.90;;;;;;4995455;28;20491;-69
2022/01/20 12:19:38;;;;;;;8.37;2.70;;;2.90;99.90;;;;;;4994454;28;20514;-70
2022/01/20 12:22:06;;;;;;;12.07;3.10;;;2.90;99.90;;;;;;4995320;28;20462;-70
2022/01/20 12:24:33;;;;;;;13.20;2.70;;;3.40;99.90;;;;;;4994928;28;20759;-70
2022/01/20 12:27:00;;;;;;;10.50;3.17;;;3.90;99.90;;;;;;4994723;28;20599;-69
2022/01/20 12:29:37;;;;;;;4.27;3.00;;;4.40;99.90;;;;;;4994281;28;20458;-70
2022/01/20 12:32:13;;;;;;;7.40;2.67;;;5.00;99.90;;;;;;4994770;28;20462;-70
2022/01/20 12:34:40;;;;;;;8.50;2.23;;;5.50;99.90;;;;;;4994657;28;20455;-69
2022/01/20 12:37:07;;;;;;;6.90;2.50;;;5.90;99.90;;;;;;4994362;28;20579;-70
2022/01/20 12:39:36;;;;;;;9.03;2.73;;;6.10;99.90;;;;;;4993855;28;20447;-70
2022/01/20 12:42:06;;;;;;;5.37;2.33;;;6.30;99.90;;;;;;4994219;28;20614;-70
2022/01/20 12:44:46;;;;;;;4.20;2.13;;;6.10;99.90;;;;;;4993925;28;20970;-69
2022/01/20 12:47:14;;;;;;;7.30;2.50;;;5.70;99.90;;;;;;4994160;28;20865;-69
2022/01/20 12:49:41;;;;;;;7.33;2.43;;;5.20;99.90;;;;;;4993584;28;20517;-69
2022/01/20 12:52:09;;;;;;;7.83;2.50;;;4.80;99.90;;;;;;4993632;28;20462;-69
2022/01/20 12:54:36;;;;;;;7.23;3.07;;;4.60;99.90;;;;;;4993578;28;20509;-68
2022/01/20 12:57:06;;;;;;;10.80;2.60;;;4.50;99.90;;;;;;4993522;28;21096;-69
2022/01/20 12:59:34;;;;;;;3.63;2.00;;;4.40;99.90;;;;;;4993299;28;20998;-69
2022/01/20 13:02:03;;;;;;;9.53;2.77;;;4.20;99.90;;;;;;4993923;28;20454;-70
2022/01/20 13:04:32;;;;;;;4.00;1.97;;;3.70;99.90;;;;;;4993802;28;20452;-70
2022/01/20 13:07:01;;;;;;;7.20;2.43;;;3.20;99.90;;;;;;4993587;28;20549;-70
2022/01/20 13:09:38;;;;;;;5.07;2.53;;;2.80;99.90;;;;;;4993155;28;20825;-71
2022/01/20 13:12:05;;;;;;;13.87;2.70;;;2.60;99.90;;;;;;4993670;28;20459;-67
2022/01/20 13:14:38;;;;;;;9.67;3.40;;;2.60;99.90;;;;;;4993244;28;20462;-70
2022/01/20 13:17:06;;;;;;;9.60;2.60;;;3.00;99.90;;;;;;4993447;28;20913;-69
2022/01/20 13:19:37;;;;;;;4.07;2.30;;;3.70;99.90;;;;;;4992113;28;20451;-69
2022/01/20 13:22:07;;;;;;;7.10;2.30;;;4.50;99.90;;;;;;4993575;28;20530;-69
2022/01/20 13:24:35;;;;;;;5.40;2.50;;;5.20;99.90;;;;;;4993852;28;20451;-68
2022/01/20 13:27:06;;;;;;;4.17;2.40;;;5.70;99.90;;;;;;4993092;28;20467;-69
2022/01/20 13:29:41;;;;;;;5.53;2.57;;;6.00;99.90;;;;;;4992692;28;20509;-69
2022/01/20 13:32:08;;;;;;;8.30;2.80;;;6.20;99.90;;;;;;4992986;28;20513;-69
2022/01/20 13:34:36;;;;;;;8.63;2.80;;;6.30;99.90;;;;;;4993233;28;20834;-69
2022/01/20 13:37:04;;;;;;;9.23;2.43;;;6.00;99.90;;;;;;4992853;28;20545;-69
2022/01/20 13:39:32;;;;;;;6.70;2.57;;;6.00;99.90;;;;;;4992510;28;20487;-69
2022/01/20 13:42:09;;;;;;;8.30;2.67;;;6.20;99.90;;;;;;4992953;28;20463;-69
2022/01/20 13:47:20;;;;;;;8.93;2.83;;;6.00;99.90;;;;;;5004927;22;20498;-66
2022/01/20 13:49:53;;;;;;;9.07;3.23;;;6.00;99.90;;;;;;4971228;28;20452;-66
2022/01/20 13:52:20;;;;;;;6.63;2.93;;;5.90;99.90;;;;;;4972254;28;20963;-66
2022/01/20 13:54:52;;;;;;;10.17;2.87;;;5.70;99.90;;;;;;4972930;28;20854;-66